NCAR-RAP Real-Time Weather Data

Output produced by METARs form (19 June 2019  11:09 UTC)
found at http://weather.rap.ucar.edu/surface/
 
KBHM 191053Z 00000KT 10SM FEW018 SCT047 BKN095 22/21 A2991 RMK AO2 SLP119 T02220211
KBHM 191034Z 00000KT 10SM FEW012 BKN095 BKN110 22/21 A2990 RMK AO2 T02220211
KBHM 191005Z 17005KT 10SM BKN012 BKN019 OVC090 23/21 A2991 RMK AO2 T02280206
KBHM 190953Z 21006KT 10SM SCT017 SCT045 OVC090 23/21 A2990 RMK AO2 LTG DSNT SE AND S SLP119 T02280206
KBHM 190903Z 20005KT 10SM OVC090 23/21 A2991 RMK AO2 LTG DSNT S T02280211
KBHM 190853Z 20004KT 10SM BKN010 OVC095 23/21 A2990 RMK AO2 LTG DSNT S SLP116 T02280211 56008
KBHM 190834Z 22009KT 10SM BKN012 BKN070 OVC095 23/21 A2990 RMK AO2 LTG DSNT SW T02330211
KBHM 190817Z 21009KT 10SM SCT014 BKN070 OVC100 23/21 A2991 RMK AO2 T02330211
KBHM 190753Z 19006KT 10SM SCT017 BKN029 OVC055 23/22 A2991 RMK AO2 SLP119 T02330217
KBHM 190653Z 18005KT 10SM FEW013 OVC095 23/22 A2991 RMK AO2 SLP120 T02330217
KBHM 190553Z 18005KT 10SM FEW011 OVC100 23/22 A2992 RMK AO2 SLP125 T02330217 10239 20233 402780228 50000
KBHM 190524Z 18005KT 10SM FEW010 OVC100 23/22 A2993 RMK AO2 T02330217
KBHM 190453Z 18008KT 10SM BKN011 BKN027 23/22 A2993 RMK AO2 SLP127 T02330217
KBHM 190450Z 19007KT 10SM BKN011 BKN027 23/22 A2993 RMK AO2
KBHM 190437Z 19007KT 10SM FEW011 SCT026 23/22 A2993 RMK AO2 T02330217
KBHM 190409Z 20008KT 10SM FEW011 BKN025 23/22 A2993 RMK AO2 T02330217
KBHM 190353Z 20006KT 10SM FEW011 SCT023 23/22 A2992 RMK AO2 SLP125 T02330217
KBHM 190328Z 19007KT 10SM FEW011 SCT025 BKN035 23/22 A2992 RMK AO2 T02330217
KBHM 190253Z 18006KT 10SM FEW018 BKN027 BKN038 24/22 A2992 RMK AO2 SLP123 T02390217 53003
KBHM 190241Z 22003KT 10SM FEW018 BKN028 OVC036 24/22 A2992 RMK AO2 T02390217
KBHM 190153Z 00000KT 10SM BKN031 BKN035 OVC095 23/21 A2991 RMK AO2 SLP119 T02330211
KBHM 190053Z 17003KT 10SM BKN023 OVC031 23/22 A2991 RMK AO2 TSE09 SLP119 TS MOV NE T02330217
KBHM 190049Z 00000KT 10SM BKN023 BKN031 23/22 A2991 RMK AO2 TSE09 TS MOV NE
KBHM 190015Z 15003KT 10SM SCT055 BKN080 23/22 A2991 RMK AO2 TSE09 TS MOV NE T02330222
KBHM 182353Z 00000KT 9SM TS FEW055CB SCT070 OVC090 24/22 A2991 RMK AO2 RAB2256E50 SLP119 OCNL LTGIC E TS E MOV NE P0028 60067 T02390217 10278 20228 56003
KBHM 182340Z 12003KT 7SM -TSRA FEW007 BKN075CB OVC090 23/21 A2990 RMK AO2 LTG DSNT E RAB2256 OCNL LTGIC E TS E MOV NE P0028 T02330211
KBHM 182320Z 20005KT 4SM TSRA BR SCT007 BKN021CB BKN080 23/22 A2991 RMK AO2 LTG DSNT N RAB2256 OCNL LTGIC NE TS NE MOV NE P0028 T02280217
KBHM 182303Z VRB05KT 2SM TSRA BR FEW025 BKN035CB OVC110 23/22 A2991 RMK AO2 LTG DSNT SW RAB2256 OCNL LTGIC OHD TS OHD MOV NE P0015 T02280217
KBHM 182253Z 00000KT 4SM TS BR SCT035CB BKN050 BKN070 24/22 A2991 RMK AO2 LTG DSNT N AND SW TSE15B32 SLP119 OCNL LTGIC SW TS SW MOV NE T02440222
KBHM 182238Z 21004KT 6SM TS BR SCT035CB BKN050 OVC080 24/22 A2990 RMK AO2 LTG DSNT SW-NW TSE15B32 OCNL LTGIC SW TS SW MOV NE T02440222
KBHM 182230Z 19006KT 10SM VCTS FEW042 BKN070 24/22 A2990 RMK AO2 LTG DSNT SW AND W TSE15 TS MOV NE T02440217
KBHM 182221Z 19004KT 10SM FEW042 BKN070 24/22 A2990 RMK AO2 LTG DSNT SW AND W TSE15 TS MOV NE T02440217
KBHM 182153Z COR 16007KT 10SM TS FEW034CB SCT042 BKN080 24/21 A2990 RMK AO2 LTG DSNT NE AND E AND W TSB53 OCNL LTGIC NW TS NW MOV NE SLP118 T02390211
KBHM 182053Z 13005KT 8SM BKN033 BKN050 BKN075 26/24 A2992 RMK AO2 LTG DSNT E RAB48E50 SLP122 P0000 60039 T02610239 56020
KBHM 181953Z 03005KT 10SM SCT021 BKN037 OVC080 26/23 A2993 RMK AO2 SLP128 P0001 T02610233
KBHM 181853Z 00000KT 10SM FEW010 SCT018 SCT027 BKN250 27/23 A2995 RMK AO2 LTG DSNT NW RAB31E49 TSB05E20 SLP134 TS MOV NE P0038 T02670228
KBHM 181841Z 01005G21KT 7SM RA SCT010 BKN024 BKN250 25/22 A2996 RMK AO2 RAB31 TSB05E20 TS MOV NE P0038 T02500217
KBHM 181835Z 29015G21KT 230V320 3/4SM +RA BR FEW010 SCT017 BKN024 OVC250 24/23 A2995 RMK AO2 RAB31 TSB05E20 TS MOV NE P0006 T02440228 RVRNO
KBHM 181832Z 33015KT 2 1/2SM VCTS +RA FEW017 BKN024 BKN029 OVC250 26/23 A2996 RMK AO2 RAB31 TSB05E20 TS MOV NE P0000 T02560228
KBHM 181825Z 34008KT 10SM VCTS FEW012 SCT024 BKN070 OVC250 27/22 A2996 RMK AO2 TSB05E20 TS MOV NE T02670222
KBHM 181810Z VRB03KT 10SM TS SCT012 BKN070CB BKN250 27/22 A2997 RMK AO2 TSB05 OCNL LTGCG W TS W MOV NE T02670222
KBHM 181753Z VRB04KT 10SM SCT055 BKN070 BKN250 27/23 A2997 RMK AO2 LTG DSNT SE SLP142 60011 T02670228 10272 20228 58014
KBHM 181713Z 04006KT 10SM FEW014 BKN039 BKN250 24/22 A3000 RMK AO2 LTG DSNT E T02390222
KBHM 181653Z 06005KT 10SM SCT017 BKN026 BKN034 BKN250 24/22 A3001 RMK AO2 LTG DSNT NE AND SE RAE43 SLP153 P0009 T02390222
KBHM 181643Z 10005KT 10SM VCTS FEW021 BKN039 BKN250 24/22 A3001 RMK AO2 LTG DSNT NE AND SE RAE43 P0009 T02390222
KBHM 181605Z 35006KT 7SM RA FEW015 BKN047 BKN250 23/21 A3001 RMK AO2 LTG DSNT SE P0006 T02330206
KBHM 181553Z 33006KT 2SM +RA BKN012 BKN050 BKN250 24/20 A3001 RMK AO2 LTG DSNT NE AND S RAB49 SLP155 P0002 T02390200
KBHM 181550Z 33007KT 4SM -RA BKN012 BKN050 BKN250 24/20 A3002 RMK AO2 LTG DSNT NE AND S RAB49 P0000
KBHM 181527Z 19006KT 10SM VCTS BKN012 BKN045 BKN250 27/23 A3001 RMK AO2 LTG DSNT N T02670233